createdAt,value
2023-05-19T00:00:38.922Z,9.242215
2023-05-19T00:01:38.959Z,9.242395
2023-05-19T00:02:40.028Z,9.242473
2023-05-19T00:03:38.957Z,9.242303
2023-05-19T00:04:38.939Z,9.242130
2023-05-19T00:05:38.921Z,9.242276
2023-05-19T00:06:38.909Z,9.242331
2023-05-19T00:07:38.922Z,9.242223
2023-05-19T00:08:38.960Z,9.242294
2023-05-19T00:09:38.909Z,9.242187
2023-05-19T00:10:38.868Z,9.242250
2023-05-19T00:11:38.851Z,9.242413
2023-05-19T00:12:38.845Z,9.242432
2023-05-19T00:13:38.861Z,9.242452
2023-05-19T00:14:38.844Z,9.242425
2023-05-19T00:15:38.838Z,9.242361
2023-05-19T00:16:38.818Z,9.242324
2023-05-19T00:17:38.880Z,9.242377
2023-05-19T00:18:38.918Z,9.242371
2023-05-19T00:19:38.807Z,9.242398
2023-05-19T00:20:38.802Z,9.242305
2023-05-19T00:21:38.796Z,9.242375
2023-05-19T00:22:38.796Z,9.242386
2023-05-19T00:23:38.794Z,9.242325
2023-05-19T00:24:39.604Z,9.242292
2023-05-19T00:25:38.782Z,9.242286
2023-05-19T00:26:38.750Z,9.242406
2023-05-19T00:27:38.795Z,9.242311
2023-05-19T00:28:38.802Z,9.242360
2023-05-19T00:29:38.728Z,9.242300
2023-05-19T00:30:38.721Z,9.242320
2023-05-19T00:31:38.764Z,9.242321
2023-05-19T00:32:38.734Z,9.242330
2023-05-19T00:33:38.726Z,9.242301
2023-05-19T00:34:38.714Z,9.242336
2023-05-19T00:35:38.732Z,9.242338
2023-05-19T00:36:38.744Z,9.242328
2023-05-19T00:37:38.676Z,9.242336
2023-05-19T00:38:38.699Z,9.242357
2023-05-19T00:39:38.666Z,9.242362
2023-05-19T00:40:38.656Z,9.242332
2023-05-19T00:41:38.665Z,9.242363
2023-05-19T00:42:38.716Z,9.242368
2023-05-19T00:43:38.623Z,9.242344
2023-05-19T00:44:38.628Z,9.242334
2023-05-19T00:45:38.623Z,9.242324
2023-05-19T00:46:38.927Z,9.242332
2023-05-19T00:47:38.682Z,9.242312
2023-05-19T00:48:38.701Z,9.242295
2023-05-19T00:49:38.577Z,9.242301
2023-05-19T00:50:38.592Z,9.242344
2023-05-19T00:51:38.562Z,9.242390
2023-05-19T00:52:38.573Z,9.242282
2023-05-19T00:53:38.553Z,9.242323
2023-05-19T00:54:38.534Z,9.242352
2023-05-19T00:55:38.576Z,9.242442
2023-05-19T00:56:38.525Z,9.242334
2023-05-19T00:57:38.521Z,9.242362
2023-05-19T00:58:38.524Z,9.242282
2023-05-19T00:59:38.505Z,9.242307
2023-05-19T01:00:38.781Z,9.242275
2023-05-19T01:01:38.524Z,9.242311
2023-05-19T01:02:38.548Z,9.242352
2023-05-19T01:03:38.588Z,9.242351
2023-05-19T01:04:39.518Z,9.242246
2023-05-19T01:05:38.497Z,9.242214
2023-05-19T01:06:38.460Z,9.242201
2023-05-19T01:07:38.453Z,9.242326
2023-05-19T01:08:38.452Z,9.242341
2023-05-19T01:09:38.508Z,9.242314
2023-05-19T01:10:38.464Z,9.242225
2023-05-19T01:11:38.424Z,9.242232
2023-05-19T01:12:38.419Z,9.242345
2023-05-19T01:13:40.345Z,9.242365
2023-05-19T01:14:38.426Z,9.242415
2023-05-19T01:15:38.504Z,9.242431
2023-05-19T01:16:38.542Z,9.242406
2023-05-19T01:17:38.426Z,9.242371
2023-05-19T01:18:38.394Z,9.242300
2023-05-19T01:19:38.382Z,9.242288
2023-05-19T01:20:38.441Z,9.242313
2023-05-19T01:21:38.361Z,9.242263
2023-05-19T01:22:38.354Z,9.242304
2023-05-19T01:23:38.361Z,9.242284
2023-05-19T01:24:38.361Z,9.242413
2023-05-19T01:25:38.333Z,9.242350
2023-05-19T01:26:38.323Z,9.242358
2023-05-19T01:27:38.332Z,9.242168
2023-05-19T01:28:38.337Z,9.242290
2023-05-19T01:29:38.308Z,9.242311
2023-05-19T01:30:38.313Z,9.242339
2023-05-19T01:31:38.347Z,9.242403
2023-05-19T01:32:38.380Z,9.242455
2023-05-19T01:33:38.305Z,9.242317
2023-05-19T01:34:38.261Z,9.242352
2023-05-19T01:35:38.264Z,9.242343
2023-05-19T01:36:38.299Z,9.242329
2023-05-19T01:37:38.273Z,9.242312
2023-05-19T01:38:38.272Z,9.242367
2023-05-19T01:39:38.263Z,9.242455
2023-05-19T01:40:38.235Z,9.242388
2023-05-19T01:41:38.225Z,9.242465
2023-05-19T01:42:38.260Z,9.242527
2023-05-19T01:43:38.209Z,9.242402
2023-05-19T01:44:38.200Z,9.242414
2023-05-19T01:45:38.234Z,9.242519
2023-05-19T01:46:38.180Z,9.242440
2023-05-19T01:47:38.280Z,9.242400
2023-05-19T01:48:38.176Z,9.242389
2023-05-19T01:49:38.163Z,9.242461
2023-05-19T01:50:38.189Z,9.242585
2023-05-19T01:51:38.161Z,9.242398
2023-05-19T01:52:39.080Z,9.242425
2023-05-19T01:53:38.143Z,9.242445
2023-05-19T01:54:38.133Z,9.242414
2023-05-19T01:55:38.127Z,9.242414
2023-05-19T01:56:38.174Z,9.242415
2023-05-19T01:57:38.149Z,9.242396
2023-05-19T01:58:38.097Z,9.242387
2023-05-19T01:59:38.103Z,9.242411
2023-05-19T02:00:38.093Z,9.242399
2023-05-19T02:01:38.210Z,9.242368
2023-05-19T02:02:38.089Z,9.242361
2023-05-19T02:03:38.077Z,9.242387
2023-05-19T02:04:38.112Z,9.242402
2023-05-19T02:05:38.073Z,9.242398
2023-05-19T02:06:38.232Z,9.242406
2023-05-19T02:07:38.386Z,9.242321
2023-05-19T02:08:38.043Z,9.242424
2023-05-19T02:09:38.033Z,9.242421
2023-05-19T02:10:38.024Z,9.242426
2023-05-19T02:11:38.057Z,9.242440
2023-05-19T02:12:38.017Z,9.242395
2023-05-19T02:13:38.013Z,9.242347
2023-05-19T02:14:37.983Z,9.242396
2023-05-19T02:15:38.026Z,9.242408
2023-05-19T02:16:38.004Z,9.242429
2023-05-19T02:17:37.995Z,9.242373
2023-05-19T02:18:37.966Z,9.242361
2023-05-19T02:19:37.980Z,9.242405
2023-05-19T02:20:37.965Z,9.242425
2023-05-19T02:21:37.946Z,9.242421
2023-05-19T02:22:37.963Z,9.242394
2023-05-19T02:23:37.932Z,9.242388
2023-05-19T02:24:38.062Z,9.242373
2023-05-19T02:25:37.950Z,9.242384
2023-05-19T02:26:37.906Z,9.242393
2023-05-19T02:27:37.912Z,9.242374
2023-05-19T02:28:37.896Z,9.242359
2023-05-19T02:29:37.924Z,9.242373
2023-05-19T02:30:37.883Z,9.242334
2023-05-19T02:31:37.936Z,9.242398
2023-05-19T02:32:37.969Z,9.242371
2023-05-19T02:33:37.874Z,9.242340
2023-05-19T02:34:37.875Z,9.242280
2023-05-19T02:35:37.837Z,9.242348
2023-05-19T02:36:37.847Z,9.242263
2023-05-19T02:37:37.814Z,9.242291
2023-05-19T02:38:37.834Z,9.242230
2023-05-19T02:39:37.881Z,9.242249
2023-05-19T02:40:37.810Z,9.242357
2023-05-19T02:41:37.875Z,9.242361
2023-05-19T02:42:37.822Z,9.242373
2023-05-19T02:43:37.807Z,9.242380
2023-05-19T02:44:37.798Z,9.242337
2023-05-19T02:45:37.786Z,9.242309
2023-05-19T02:46:37.827Z,9.242067
2023-05-19T02:47:37.783Z,9.242213
2023-05-19T02:48:37.779Z,9.242311
2023-05-19T02:49:37.748Z,9.242214
2023-05-19T02:50:37.747Z,9.242212
2023-05-19T02:51:37.781Z,9.242303
2023-05-19T02:52:37.757Z,9.242315
2023-05-19T02:53:37.752Z,9.242233
2023-05-19T02:54:37.716Z,9.242188
2023-05-19T02:55:37.717Z,9.242387
2023-05-19T02:56:37.696Z,9.242326
2023-05-19T02:57:37.719Z,9.242306
2023-05-19T02:58:37.675Z,9.242345
2023-05-19T02:59:37.690Z,9.242326
2023-05-19T03:00:37.721Z,9.242257
2023-05-19T03:01:37.820Z,9.242283
2023-05-19T03:02:37.725Z,9.242261
2023-05-19T03:03:37.770Z,9.242265
2023-05-19T03:04:37.646Z,9.242236
2023-05-19T03:05:37.625Z,9.242228
2023-05-19T03:06:37.661Z,9.242274
2023-05-19T03:07:37.645Z,9.242207
2023-05-19T03:08:38.826Z,9.242340
2023-05-19T03:09:37.605Z,9.242414
2023-05-19T03:10:37.645Z,9.242333
2023-05-19T03:11:37.606Z,9.242322
2023-05-19T03:12:37.642Z,9.242332
2023-05-19T03:13:37.575Z,9.242359
2023-05-19T03:14:37.562Z,9.242419
2023-05-19T03:15:37.572Z,9.242417
2023-05-19T03:16:37.701Z,9.242408
2023-05-19T03:17:37.582Z,9.242405
2023-05-19T03:18:37.578Z,9.242383
2023-05-19T03:19:37.528Z,9.242402
2023-05-19T03:20:38.992Z,9.242414
2023-05-19T03:21:37.548Z,9.242328
2023-05-19T03:22:37.511Z,9.242422
2023-05-19T03:23:37.508Z,9.242410
2023-05-19T03:24:37.505Z,9.242438
2023-05-19T03:25:37.505Z,9.242429
2023-05-19T03:26:37.486Z,9.242439
2023-05-19T03:27:37.481Z,9.242397
2023-05-19T03:28:37.462Z,9.242333
2023-05-19T03:29:37.468Z,9.242352
2023-05-19T03:30:37.483Z,9.242411
2023-05-19T03:31:37.446Z,9.242434
2023-05-19T03:32:37.515Z,9.242470
2023-05-19T03:33:37.543Z,9.242394
2023-05-19T03:34:37.436Z,9.242403
2023-05-19T03:35:37.436Z,9.242414
2023-05-19T03:36:37.424Z,9.242414
2023-05-19T03:37:37.407Z,9.242402
2023-05-19T03:38:37.411Z,9.242378
2023-05-19T03:39:37.417Z,9.242357
2023-05-19T03:40:37.408Z,9.242384
2023-05-19T03:41:37.382Z,9.242388
2023-05-19T03:42:37.370Z,9.242394
2023-05-19T03:43:37.384Z,9.242397
2023-05-19T03:44:37.388Z,9.242442
2023-05-19T03:45:37.380Z,9.242453
2023-05-19T03:46:37.356Z,9.242485
2023-05-19T03:47:37.382Z,9.242426
2023-05-19T03:48:37.331Z,9.242386
2023-05-19T03:49:37.341Z,9.242367
2023-05-19T03:50:37.322Z,9.242345
2023-05-19T03:51:37.310Z,9.242393
2023-05-19T03:52:37.362Z,9.242390
2023-05-19T03:53:37.408Z,9.242410
2023-05-19T03:54:37.294Z,9.242418
2023-05-19T03:55:37.308Z,9.242426
2023-05-19T03:56:37.291Z,9.242445
2023-05-19T03:57:37.320Z,9.242442
2023-05-19T03:58:37.280Z,9.242393
2023-05-19T03:59:37.271Z,9.242410
2023-05-19T04:00:37.242Z,9.242381
2023-05-19T04:01:37.250Z,9.242408
2023-05-19T04:02:37.360Z,9.242365
2023-05-19T04:03:37.274Z,9.242407
2023-05-19T04:04:37.266Z,9.242383
2023-05-19T04:05:37.206Z,9.242380
2023-05-19T04:06:37.203Z,9.242397
2023-05-19T04:07:37.252Z,9.242372
2023-05-19T04:08:37.205Z,9.242435
2023-05-19T04:09:37.176Z,9.242450
2023-05-19T04:10:37.195Z,9.242428
2023-05-19T04:11:37.173Z,9.242413
2023-05-19T04:12:37.193Z,9.242365
2023-05-19T04:13:37.165Z,9.242348
2023-05-19T04:14:37.166Z,9.242378
2023-05-19T04:15:37.191Z,9.242374
2023-05-19T04:16:37.175Z,9.242415
2023-05-19T04:17:37.234Z,9.242446
2023-05-19T04:18:37.209Z,9.242432
2023-05-19T04:19:37.126Z,9.242402
2023-05-19T04:20:37.178Z,9.242442
2023-05-19T04:21:37.129Z,9.242476
2023-05-19T04:22:37.090Z,9.242446
2023-05-19T04:23:37.125Z,9.242430
2023-05-19T04:24:37.069Z,9.242453
2023-05-19T04:25:37.081Z,9.242416
2023-05-19T04:26:37.074Z,9.242427
2023-05-19T04:27:37.114Z,9.242464
2023-05-19T04:28:37.052Z,9.242390
2023-05-19T04:29:37.039Z,9.242396
2023-05-19T04:30:37.048Z,9.242388
2023-05-19T04:31:37.246Z,9.242327
2023-05-19T04:32:37.041Z,9.242450
2023-05-19T04:33:37.011Z,9.242432
2023-05-19T04:34:37.019Z,9.242408
2023-05-19T04:35:37.022Z,9.242438
2023-05-19T04:36:37.056Z,9.242377
2023-05-19T04:37:36.977Z,9.242381
2023-05-19T04:38:36.984Z,9.242420
2023-05-19T04:39:37.007Z,9.242393
2023-05-19T04:40:36.991Z,9.242504
2023-05-19T04:41:36.945Z,9.242479
2023-05-19T04:42:36.944Z,9.242502
2023-05-19T04:43:36.943Z,9.242339
2023-05-19T04:44:36.933Z,9.242364
2023-05-19T04:45:36.933Z,9.242389
2023-05-19T04:46:36.969Z,9.242365
2023-05-19T04:47:37.040Z,9.242427
2023-05-19T04:48:36.895Z,9.242466
2023-05-19T04:49:36.903Z,9.242408
2023-05-19T04:50:37.929Z,9.242367
2023-05-19T04:51:36.896Z,9.242329
2023-05-19T04:52:36.905Z,9.242407
2023-05-19T04:53:36.875Z,9.242327
2023-05-19T04:54:36.883Z,9.242360
2023-05-19T04:55:36.848Z,9.242344
2023-05-19T04:56:36.856Z,9.242294
2023-05-19T04:57:36.837Z,9.242335
2023-05-19T04:58:36.882Z,9.242336
2023-05-19T04:59:36.852Z,9.242313
2023-05-19T05:00:36.817Z,9.242337
2023-05-19T05:01:36.829Z,9.242317
2023-05-19T05:02:36.937Z,9.242373
2023-05-19T05:03:36.895Z,9.242307
2023-05-19T05:04:36.806Z,9.242347
2023-05-19T05:05:36.804Z,9.242433
2023-05-19T05:06:36.774Z,9.242523
2023-05-19T05:07:36.751Z,9.242413
2023-05-19T05:08:36.781Z,9.242425
2023-05-19T05:09:36.740Z,9.242379
2023-05-19T05:10:36.743Z,9.242394
2023-05-19T05:11:36.731Z,9.242390
2023-05-19T05:12:36.739Z,9.242306
2023-05-19T05:13:36.729Z,9.242337
2023-05-19T05:14:36.710Z,9.242403
2023-05-19T05:15:36.690Z,9.242424
2023-05-19T05:16:36.698Z,9.242409
2023-05-19T05:17:36.749Z,9.242351
2023-05-19T05:18:36.735Z,9.242353
2023-05-19T05:19:36.682Z,9.242363
2023-05-19T05:20:36.683Z,9.242342
2023-05-19T05:21:36.663Z,9.242352
2023-05-19T05:22:36.691Z,9.242403
2023-05-19T05:23:37.630Z,9.242344
2023-05-19T05:24:36.658Z,9.242385
2023-05-19T05:25:36.622Z,9.242430
2023-05-19T05:26:36.612Z,9.242368
2023-05-19T05:27:36.683Z,9.242350
2023-05-19T05:28:36.601Z,9.242365
2023-05-19T05:29:36.591Z,9.242327
2023-05-19T05:30:36.633Z,9.242436
2023-05-19T05:31:36.635Z,9.242397
2023-05-19T05:32:36.793Z,9.242414
2023-05-19T05:33:36.611Z,9.242413
2023-05-19T05:34:36.823Z,9.242393
2023-05-19T05:35:36.546Z,9.242447
2023-05-19T05:36:36.579Z,9.242491
2023-05-19T05:37:36.546Z,9.242404
2023-05-19T05:38:36.551Z,9.242361
2023-05-19T05:39:36.540Z,9.242412
2023-05-19T05:40:36.541Z,9.242355
2023-05-19T05:41:36.557Z,9.242403
2023-05-19T05:42:36.517Z,9.242384
2023-05-19T05:43:36.499Z,9.242346
2023-05-19T05:44:36.491Z,9.242349
2023-05-19T05:45:36.583Z,9.242380
2023-05-19T05:46:36.533Z,9.242389
2023-05-19T05:47:36.493Z,9.242412
2023-05-19T05:48:36.476Z,9.242543
2023-05-19T05:49:36.533Z,9.242338
2023-05-19T05:50:36.466Z,9.242375
2023-05-19T05:51:36.461Z,9.242352
2023-05-19T05:52:36.473Z,9.242431
2023-05-19T05:53:36.440Z,9.242248
2023-05-19T05:54:36.443Z,9.242270
2023-05-19T05:55:36.463Z,9.242266
2023-05-19T05:56:36.410Z,9.242292
2023-05-19T05:57:36.419Z,9.242387
2023-05-19T05:58:37.374Z,9.242377
2023-05-19T05:59:37.413Z,9.242363
2023-05-19T06:00:36.602Z,9.242364
2023-05-19T06:01:36.381Z,9.242368
2023-05-19T06:02:36.423Z,9.242351
2023-05-19T06:03:36.412Z,9.242338
2023-05-19T06:04:36.385Z,9.242414
2023-05-19T06:05:36.458Z,9.242387
2023-05-19T06:06:36.369Z,9.242339
2023-05-19T06:07:36.340Z,9.242335
2023-05-19T06:08:36.378Z,9.242380
2023-05-19T06:09:37.237Z,9.242369
2023-05-19T06:10:36.541Z,9.242327
2023-05-19T06:11:36.347Z,9.242306
2023-05-19T06:12:36.303Z,9.242352
2023-05-19T06:13:36.333Z,9.242370
2023-05-19T06:14:36.295Z,9.242357
2023-05-19T06:15:36.309Z,9.242348
2023-05-19T06:16:36.331Z,9.242333
2023-05-19T06:17:36.334Z,9.242315
2023-05-19T06:18:36.330Z,9.242373
2023-05-19T06:19:36.252Z,9.242376
2023-05-19T06:20:36.373Z,9.242388
2023-05-19T06:21:36.241Z,9.242309
2023-05-19T06:22:36.301Z,9.242255
2023-05-19T06:23:36.292Z,9.242310
2023-05-19T06:24:38.698Z,9.242344
2023-05-19T06:25:36.238Z,9.242212
2023-05-19T06:26:36.222Z,9.242210
2023-05-19T06:27:36.209Z,9.242230
2023-05-19T06:28:36.203Z,9.242260
2023-05-19T06:29:36.223Z,9.242326
2023-05-19T06:30:36.203Z,9.242306
2023-05-19T06:31:36.184Z,9.242331
2023-05-19T06:32:36.207Z,9.242355
2023-05-19T06:33:36.181Z,9.242357
2023-05-19T06:34:36.181Z,9.242360
2023-05-19T06:35:36.157Z,9.242374
2023-05-19T06:36:36.162Z,9.242377
2023-05-19T06:37:36.155Z,9.242357
2023-05-19T06:38:36.116Z,9.242384
2023-05-19T06:39:36.118Z,9.242327
2023-05-19T06:40:36.163Z,9.242392
2023-05-19T06:41:36.133Z,9.242360
2023-05-19T06:42:36.141Z,9.242368
2023-05-19T06:43:36.093Z,9.242338
2023-05-19T06:44:36.088Z,9.242386
2023-05-19T06:45:36.099Z,9.242382
2023-05-19T06:46:36.128Z,9.242361
2023-05-19T06:47:36.210Z,9.242364
2023-05-19T06:48:36.059Z,9.242368
2023-05-19T06:49:36.080Z,9.242361
2023-05-19T06:50:36.049Z,9.242385
2023-05-19T06:51:36.069Z,9.242305
2023-05-19T06:52:36.022Z,9.242369
2023-05-19T06:53:36.043Z,9.242415
2023-05-19T06:54:36.044Z,9.242395
2023-05-19T06:55:43.941Z,9.242350
2023-05-19T06:56:38.051Z,9.242352
2023-05-19T06:57:35.989Z,9.242374
2023-05-19T06:58:35.985Z,9.242369
2023-05-19T06:59:35.986Z,9.242355
2023-05-19T07:00:36.266Z,9.242352
2023-05-19T07:01:36.011Z,9.242391
2023-05-19T07:02:36.025Z,9.242357
2023-05-19T07:03:36.061Z,9.242249
2023-05-19T07:04:35.936Z,9.242330
2023-05-19T07:05:35.958Z,9.242392
2023-05-19T07:06:35.933Z,9.242388
2023-05-19T07:07:35.924Z,9.242409
2023-05-19T07:08:35.920Z,9.242393
2023-05-19T07:09:35.925Z,9.242400
2023-05-19T07:10:35.910Z,9.242329
2023-05-19T07:11:35.892Z,9.242397
2023-05-19T07:12:35.874Z,9.242450
2023-05-19T07:13:35.871Z,9.242382
2023-05-19T07:14:35.888Z,9.242393
2023-05-19T07:15:35.892Z,9.242413
2023-05-19T07:16:35.896Z,9.242380
2023-05-19T07:17:35.948Z,9.242371
2023-05-19T07:18:35.858Z,9.242410
2023-05-19T07:19:35.936Z,9.242410
2023-05-19T07:20:35.830Z,9.242300
2023-05-19T07:21:35.847Z,9.242375
2023-05-19T07:22:35.857Z,9.242392
2023-05-19T07:23:35.838Z,9.242447
2023-05-19T07:24:35.827Z,9.242517
2023-05-19T07:25:35.783Z,9.242507
2023-05-19T07:26:35.784Z,9.242327
2023-05-19T07:27:35.769Z,9.242351
2023-05-19T07:28:35.811Z,9.242378
2023-05-19T07:29:35.754Z,9.242400
2023-05-19T07:30:35.793Z,9.242399
2023-05-19T07:31:35.772Z,9.242365
2023-05-19T07:32:35.768Z,9.242311
2023-05-19T07:33:35.795Z,9.242243
2023-05-19T07:34:35.739Z,9.242283
2023-05-19T07:35:35.725Z,9.242361
2023-05-19T07:36:35.710Z,9.242465
2023-05-19T07:37:35.713Z,9.242396
2023-05-19T07:38:35.737Z,9.242303
2023-05-19T07:39:35.712Z,9.242457
2023-05-19T07:40:35.689Z,9.242292
2023-05-19T07:41:36.536Z,9.242311
2023-05-19T07:42:36.692Z,9.242432
2023-05-19T07:43:35.716Z,9.242508
2023-05-19T07:44:35.655Z,9.242335
2023-05-19T07:45:35.659Z,9.242239
2023-05-19T07:46:35.732Z,9.242241
2023-05-19T07:47:35.661Z,9.242274
2023-05-19T07:48:35.619Z,9.242373
2023-05-19T07:49:35.613Z,9.242183
2023-05-19T07:50:35.646Z,9.242110
2023-05-19T07:51:35.626Z,9.242073
2023-05-19T07:52:35.598Z,9.242132
2023-05-19T07:53:35.600Z,9.242085
2023-05-19T07:54:35.585Z,9.242050
2023-05-19T07:55:35.602Z,9.242108
2023-05-19T07:56:35.792Z,9.242120
2023-05-19T07:57:35.584Z,9.242052
2023-05-19T07:58:35.547Z,9.242054
2023-05-19T07:59:35.569Z,9.242218
2023-05-19T08:00:35.635Z,9.242205
2023-05-19T08:01:35.548Z,9.242210
2023-05-19T08:02:35.609Z,9.242152
2023-05-19T08:03:35.797Z,9.242346
2023-05-19T08:04:35.640Z,9.242390
2023-05-19T08:05:35.581Z,9.242319
2023-05-19T08:06:35.507Z,9.242318
2023-05-19T08:07:35.482Z,9.242406
2023-05-19T08:08:35.481Z,9.242368
2023-05-19T08:09:35.499Z,9.242220
2023-05-19T08:10:35.733Z,9.242340
2023-05-19T08:11:35.463Z,9.242355
2023-05-19T08:12:35.519Z,9.242190
2023-05-19T08:13:35.468Z,9.242324
2023-05-19T08:14:35.441Z,9.242494
2023-05-19T08:15:35.571Z,9.242448
2023-05-19T08:16:35.424Z,9.242412
2023-05-19T08:17:35.630Z,9.242430
2023-05-19T08:18:35.417Z,9.242428
2023-05-19T08:19:35.443Z,9.242414
2023-05-19T08:20:35.580Z,9.242440
2023-05-19T08:21:35.401Z,9.242471
2023-05-19T08:22:35.406Z,9.242433
2023-05-19T08:23:35.382Z,9.242371
2023-05-19T08:24:35.439Z,9.242473
2023-05-19T08:25:35.383Z,9.242376
2023-05-19T08:26:37.621Z,9.242386
2023-05-19T08:27:36.354Z,9.242392
2023-05-19T08:28:35.340Z,9.242518
2023-05-19T08:29:35.403Z,9.242381
2023-05-19T08:30:35.388Z,9.242328
2023-05-19T08:31:35.372Z,9.242375
2023-05-19T08:32:35.343Z,9.242332
2023-05-19T08:33:35.324Z,9.242305
2023-05-19T08:34:35.328Z,9.242306
2023-05-19T08:35:35.308Z,9.242310
2023-05-19T08:36:35.296Z,9.242309
2023-05-19T08:37:35.286Z,9.242340
2023-05-19T08:38:35.310Z,9.242311
2023-05-19T08:39:35.283Z,9.242372
2023-05-19T08:40:35.358Z,9.242339
2023-05-19T08:41:35.274Z,9.242328
2023-05-19T08:42:35.249Z,9.242375
2023-05-19T08:43:35.265Z,9.242345
2023-05-19T08:44:35.257Z,9.242340
2023-05-19T08:45:35.327Z,9.242351
2023-05-19T08:46:35.249Z,9.242350
2023-05-19T08:47:35.260Z,9.242292
2023-05-19T08:48:35.226Z,9.242321
2023-05-19T08:49:35.205Z,9.242343
2023-05-19T08:50:35.319Z,9.242336
2023-05-19T08:51:35.194Z,9.242379
2023-05-19T08:52:35.203Z,9.242397
2023-05-19T08:53:35.174Z,9.242378
2023-05-19T08:54:35.176Z,9.242350
2023-05-19T08:55:35.351Z,9.242372
2023-05-19T08:56:35.154Z,9.242319
2023-05-19T08:57:35.161Z,9.242270
2023-05-19T08:58:35.130Z,9.242295
2023-05-19T08:59:35.122Z,9.242249
2023-05-19T09:00:35.503Z,9.242242
2023-05-19T09:02:35.128Z,9.242287
2023-05-19T09:03:35.156Z,9.242285
2023-05-19T09:04:35.223Z,9.242374
2023-05-19T09:05:35.378Z,9.242431
2023-05-19T09:06:35.118Z,9.242391
2023-05-19T09:07:35.082Z,9.242426
2023-05-19T09:08:35.121Z,9.242353
2023-05-19T09:09:35.069Z,9.242384
2023-05-19T09:10:35.065Z,9.242339
2023-05-19T09:11:35.071Z,9.242337
2023-05-19T09:12:35.060Z,9.242321
2023-05-19T09:13:35.036Z,9.242350
2023-05-19T09:14:35.033Z,9.242446
2023-05-19T09:15:35.269Z,9.242397
2023-05-19T09:16:35.053Z,9.242297
2023-05-19T09:17:35.038Z,9.242270
2023-05-19T09:18:35.032Z,9.242322
2023-05-19T09:19:35.079Z,9.242402
2023-05-19T09:20:35.045Z,9.242442
2023-05-19T09:21:34.982Z,9.242359
2023-05-19T09:22:34.985Z,9.242352
2023-05-19T09:23:34.948Z,9.242371
2023-05-19T09:24:35.031Z,9.242453
2023-05-19T09:25:36.066Z,9.242413
2023-05-19T09:26:35.041Z,9.242397
2023-05-19T09:27:34.962Z,9.242381
2023-05-19T09:28:34.936Z,9.242317
2023-05-19T09:29:34.981Z,9.242359
2023-05-19T09:30:34.949Z,9.242415
2023-05-19T09:31:34.966Z,9.242373
2023-05-19T09:32:34.921Z,9.242363
2023-05-19T09:33:34.964Z,9.242316
2023-05-19T09:34:34.918Z,9.242325
2023-05-19T09:35:35.221Z,9.242373
2023-05-19T09:36:34.864Z,9.242369
2023-05-19T09:37:34.865Z,9.242411
2023-05-19T09:38:34.848Z,9.242387
2023-05-19T09:39:34.944Z,9.242395
2023-05-19T09:40:34.852Z,9.242406
2023-05-19T09:41:34.829Z,9.242393
2023-05-19T09:42:34.994Z,9.242378
2023-05-19T09:43:34.957Z,9.242333
2023-05-19T09:44:34.959Z,9.242352
2023-05-19T09:45:35.056Z,9.242374
2023-05-19T09:46:35.022Z,9.242363
2023-05-19T09:47:34.833Z,9.242378
2023-05-19T09:48:34.825Z,9.242421
2023-05-19T09:49:34.810Z,9.242388
2023-05-19T09:50:34.777Z,9.242375
2023-05-19T09:51:34.770Z,9.242408
2023-05-19T09:52:34.747Z,9.242403
2023-05-19T09:53:34.792Z,9.242435
2023-05-19T09:54:34.742Z,9.242469
2023-05-19T09:55:35.092Z,9.242320
2023-05-19T09:56:34.800Z,9.242311
2023-05-19T09:57:34.755Z,9.242356
2023-05-19T09:58:34.794Z,9.242358
2023-05-19T09:59:34.704Z,9.242404
2023-05-19T10:00:35.118Z,9.242412
2023-05-19T10:01:34.749Z,9.242358
2023-05-19T10:02:34.766Z,9.242367
2023-05-19T10:03:34.813Z,9.242300
2023-05-19T10:04:34.700Z,9.242341
2023-05-19T10:05:35.237Z,9.242362
2023-05-19T10:06:34.697Z,9.242373
2023-05-19T10:07:34.666Z,9.242261
2023-05-19T10:08:34.660Z,9.242176
2023-05-19T10:09:34.638Z,9.242166
2023-05-19T10:10:34.614Z,9.242263
2023-05-19T10:11:34.621Z,9.242386
2023-05-19T10:12:34.623Z,9.242386
2023-05-19T10:13:34.611Z,9.242331
2023-05-19T10:14:34.595Z,9.242347
2023-05-19T10:15:40.884Z,9.242315
2023-05-19T10:16:36.638Z,9.242362
2023-05-19T10:17:34.623Z,9.242393
2023-05-19T10:18:34.603Z,9.242383
2023-05-19T10:19:34.683Z,9.242353
2023-05-19T10:20:34.749Z,9.242393
2023-05-19T10:21:34.554Z,9.242376
2023-05-19T10:22:34.538Z,9.242393
2023-05-19T10:23:34.569Z,9.242287
2023-05-19T10:24:34.539Z,9.242325
2023-05-19T10:25:34.778Z,9.242306
2023-05-19T10:26:34.546Z,9.242272
2023-05-19T10:27:34.522Z,9.242343
2023-05-19T10:28:34.491Z,9.242429
2023-05-19T10:29:34.493Z,9.242345
2023-05-19T10:30:34.621Z,9.242435
2023-05-19T10:31:34.531Z,9.242392
2023-05-19T10:32:34.600Z,9.242380
2023-05-19T10:33:34.457Z,9.242311
2023-05-19T10:34:34.449Z,9.242380
2023-05-19T10:35:34.661Z,9.242393
2023-05-19T10:36:34.424Z,9.242412
2023-05-19T10:37:34.433Z,9.242312
2023-05-19T10:38:34.434Z,9.242272
2023-05-19T10:39:34.412Z,9.242302
2023-05-19T10:40:34.427Z,9.242395
2023-05-19T10:41:34.411Z,9.242325
2023-05-19T10:42:34.391Z,9.242315
2023-05-19T10:43:34.401Z,9.242383
2023-05-19T10:44:34.416Z,9.242394
2023-05-19T10:45:34.733Z,9.242355
2023-05-19T10:46:34.443Z,9.242432
2023-05-19T10:47:34.375Z,9.242422
2023-05-19T10:48:34.340Z,9.242459
2023-05-19T10:49:34.368Z,9.242383
2023-05-19T10:50:34.392Z,9.242448
2023-05-19T10:51:34.333Z,9.242397
2023-05-19T10:52:34.321Z,9.242403
2023-05-19T10:53:34.310Z,9.242380
2023-05-19T10:54:34.364Z,9.242306
2023-05-19T10:55:34.456Z,9.242393
2023-05-19T10:56:34.348Z,9.242427
2023-05-19T10:57:34.321Z,9.242368
2023-05-19T10:58:34.302Z,9.242404
2023-05-19T10:59:34.320Z,9.242409
2023-05-19T11:00:34.275Z,9.242371
2023-05-19T11:01:34.315Z,9.242324
2023-05-19T11:02:34.297Z,9.242340
2023-05-19T11:03:34.296Z,9.242338
2023-05-19T11:04:34.302Z,9.242382
2023-05-19T11:05:34.489Z,9.242282
2023-05-19T11:06:34.231Z,9.242393
2023-05-19T11:07:34.232Z,9.242442
2023-05-19T11:08:34.227Z,9.242434
2023-05-19T11:09:39.987Z,9.242400
2023-05-19T11:10:36.258Z,9.242422
2023-05-19T11:11:34.888Z,9.242447
2023-05-19T11:12:34.195Z,9.242517
2023-05-19T11:13:34.201Z,9.242573
2023-05-19T11:14:34.183Z,9.242511
2023-05-19T11:15:34.387Z,9.242508
2023-05-19T11:16:34.324Z,9.242453
2023-05-19T11:17:35.070Z,9.242453
2023-05-19T11:18:34.155Z,9.242398
2023-05-19T11:19:34.138Z,9.242320
2023-05-19T11:20:34.143Z,9.242472
2023-05-19T11:21:34.254Z,9.242579
2023-05-19T11:22:35.037Z,9.242488
2023-05-19T11:23:35.505Z,9.242364
2023-05-19T11:24:34.117Z,9.242378
2023-05-19T11:25:34.177Z,9.242410
2023-05-19T11:26:34.105Z,9.242436
2023-05-19T11:27:34.100Z,9.242381
2023-05-19T11:28:34.108Z,9.242359
2023-05-19T11:29:34.914Z,9.242435
2023-05-19T11:30:35.221Z,9.242399
2023-05-19T11:31:34.200Z,9.242468
2023-05-19T11:32:34.123Z,9.242414
2023-05-19T11:33:34.031Z,9.242451
2023-05-19T11:34:34.034Z,9.242411
2023-05-19T11:35:36.005Z,9.242414
2023-05-19T11:36:35.067Z,9.242423
2023-05-19T11:37:34.013Z,9.242416
2023-05-19T11:38:33.997Z,9.242509
2023-05-19T11:39:34.020Z,9.242342
2023-05-19T11:40:34.029Z,9.242336
2023-05-19T11:41:33.997Z,9.242425
2023-05-19T11:42:33.971Z,9.242420
2023-05-19T11:43:34.982Z,9.242404
2023-05-19T11:44:33.974Z,9.242406
2023-05-19T11:45:34.142Z,9.242378